Marathon, Ohio
Current Conditions -  °F | °C
As of 10:54 AM on Sunday 25 Jan 2015 (Local Time) from KILN Reporting Station
Light Rain Light Rain  
Wind Chill: 32°   Ceiling: 4200
Heat Index: 36°   Visibility: 6mi
Dew Point: 31°   Wind: 5mph
Humidity: 82%   Direction: 190°S
Pressure: 29.75"   Gusts: NA
Location:  39.14°N, 84.01°W
Report Text: KILN 251554Z AUTO 19004KT 6SM -RA BKN042 OVC049 02/M01 A2975 RMK AO2 RAB18 SLP098 P0000 T00221006
Loading
Personal Weather Stations






























Interactive Weather Map New forecast layout! Learn more

10-Day Weather Forecast

Advertisements
Track Severe Weather on mobile